GLO1714 SBBR-SBCY
Flight info
| Callsign | GLO1714 |
|---|---|
| Flight time | 1h 20m |
| Altitude | 36000 |
| Route | SIREM DCT LODOV DCT MABMA DCT SINIP |
| Aircraft | B737/M-SDFGIKLORWXY/LB1 |
Departure
| Time | 2026-04-25 00:45 |
|---|---|
| Airport | Presidente Juscelino Kubitschek International Airport (SBBR) |
Arrival
| Time | 2026-04-25 02:06 |
|---|---|
| Airport | Várzea Grande–Marechal Rondon International Airport (SBCY) |
| Time | Latitude | Longitude | Altitude | Speed | Heading |
|---|---|---|---|---|---|
| 2026-04-25 00:27 | -15.87127 | -47.91816 | 3464 ft | 0 kts | 176° |
| 2026-04-25 00:33 | -15.87107 | -47.91817 | 3464 ft | 4 kts | 179° |
| 2026-04-25 00:33 | -15.87080 | -47.91819 | 3462 ft | 4 kts | 165° |
| 2026-04-25 00:34 | -15.87066 | -47.91826 | 3462 ft | 2 kts | 86° |
| 2026-04-25 00:34 | -15.87067 | -47.91844 | 3463 ft | 0 kts | 86° |
| 2026-04-25 00:37 | -15.87067 | -47.91843 | 3463 ft | 0 kts | 86° |
| 2026-04-25 00:37 | -15.87067 | -47.91832 | 3463 ft | 3 kts | 86° |
| 2026-04-25 00:37 | -15.87064 | -47.91795 | 3462 ft | 7 kts | 86° |
| 2026-04-25 00:38 | -15.87061 | -47.91733 | 3464 ft | 10 kts | 86° |
| 2026-04-25 00:38 | -15.87055 | -47.91649 | 3463 ft | 13 kts | 86° |
| 2026-04-25 00:38 | -15.87009 | -47.91596 | 3464 ft | 11 kts | 3° |
| 2026-04-25 00:38 | -15.86972 | -47.91599 | 3463 ft | 0 kts | 355° |
| 2026-04-25 00:40 | -15.86963 | -47.91599 | 3464 ft | 4 kts | 355° |
| 2026-04-25 00:40 | -15.86915 | -47.91603 | 3463 ft | 10 kts | 355° |
| 2026-04-25 00:40 | -15.86829 | -47.91609 | 3463 ft | 15 kts | 357° |
| 2026-04-25 00:41 | -15.86710 | -47.91617 | 3464 ft | 19 kts | 356° |
| 2026-04-25 00:41 | -15.86578 | -47.91625 | 3463 ft | 19 kts | 356° |
| 2026-04-25 00:41 | -15.86490 | -47.91649 | 3463 ft | 12 kts | 308° |
| 2026-04-25 00:41 | -15.86485 | -47.91733 | 3463 ft | 13 kts | 266° |
| 2026-04-25 00:42 | -15.86492 | -47.91827 | 3463 ft | 14 kts | 264° |
| 2026-04-25 00:42 | -15.86501 | -47.91930 | 3462 ft | 14 kts | 265° |
| 2026-04-25 00:42 | -15.86508 | -47.92034 | 3461 ft | 15 kts | 266° |
| 2026-04-25 00:42 | -15.86515 | -47.92145 | 3461 ft | 16 kts | 266° |
| 2026-04-25 00:43 | -15.86523 | -47.92258 | 3461 ft | 16 kts | 266° |
| 2026-04-25 00:43 | -15.86530 | -47.92371 | 3460 ft | 17 kts | 266° |
| 2026-04-25 00:43 | -15.86538 | -47.92501 | 3461 ft | 18 kts | 268° |
| 2026-04-25 00:43 | -15.86544 | -47.92634 | 3460 ft | 19 kts | 268° |
| 2026-04-25 00:44 | -15.86529 | -47.92761 | 3467 ft | 18 kts | 330° |
| 2026-04-25 00:44 | -15.86456 | -47.92769 | 3466 ft | 7 kts | 357° |
| 2026-04-25 00:44 | -15.86407 | -47.92758 | 3465 ft | 8 kts | 37° |
| 2026-04-25 00:44 | -15.86362 | -47.92712 | 3464 ft | 10 kts | 54° |
| 2026-04-25 00:45 | -15.86339 | -47.92487 | 3466 ft | 71 kts | 86° |
| 2026-04-25 00:45 | -15.86291 | -47.91722 | 3466 ft | 137 kts | 86° |
| 2026-04-25 00:45 | -15.86217 | -47.90561 | 3561 ft | 179 kts | 87° |
| 2026-04-25 00:45 | -15.86166 | -47.89230 | 4174 ft | 187 kts | 88° |
| 2026-04-25 00:46 | -15.86503 | -47.88013 | 5085 ft | 174 kts | 134° |
| 2026-04-25 00:46 | -15.87598 | -47.87469 | 5705 ft | 188 kts | 174° |
| 2026-04-25 00:46 | -15.90629 | -47.87189 | 6238 ft | 246 kts | 175° |
| 2026-04-25 00:47 | -15.92381 | -47.86987 | 6783 ft | 260 kts | 173° |
| 2026-04-25 00:47 | -15.94234 | -47.86729 | 7298 ft | 279 kts | 172° |
| 2026-04-25 00:47 | -15.96174 | -47.86415 | 8241 ft | 284 kts | 171° |
| 2026-04-25 00:47 | -15.98132 | -47.86067 | 9233 ft | 287 kts | 170° |
| 2026-04-25 00:48 | -16.00125 | -47.85839 | 10127 ft | 291 kts | 187° |
| 2026-04-25 00:48 | -16.02067 | -47.86550 | 10632 ft | 311 kts | 215° |
| 2026-04-25 00:48 | -16.03519 | -47.88275 | 11156 ft | 325 kts | 242° |
| 2026-04-25 00:48 | -16.04495 | -47.90422 | 11978 ft | 331 kts | 246° |
| 2026-04-25 00:49 | -16.05416 | -47.92640 | 12846 ft | 336 kts | 246° |
| 2026-04-25 00:49 | -16.06368 | -47.94870 | 13705 ft | 340 kts | 246° |
| 2026-04-25 00:49 | -16.07346 | -47.97096 | 14573 ft | 344 kts | 245° |
| 2026-04-25 00:49 | -16.08396 | -47.99355 | 15440 ft | 349 kts | 242° |
| 2026-04-25 00:50 | -16.09560 | -48.01587 | 16305 ft | 353 kts | 241° |
| 2026-04-25 00:50 | -16.10767 | -48.03829 | 17154 ft | 357 kts | 241° |
| 2026-04-25 00:50 | -16.11983 | -48.06094 | 17949 ft | 361 kts | 241° |
| 2026-04-25 00:50 | -16.13206 | -48.08400 | 18725 ft | 366 kts | 241° |
| 2026-04-25 00:51 | -16.14439 | -48.10739 | 19500 ft | 370 kts | 241° |
| 2026-04-25 00:51 | -16.15683 | -48.13105 | 20252 ft | 375 kts | 241° |
| 2026-04-25 00:51 | -16.16926 | -48.15472 | 20972 ft | 379 kts | 241° |
| 2026-04-25 00:51 | -16.18197 | -48.17890 | 21686 ft | 383 kts | 241° |
| 2026-04-25 00:52 | -16.19484 | -48.20341 | 22362 ft | 388 kts | 241° |
| 2026-04-25 00:52 | -16.20788 | -48.22824 | 23004 ft | 392 kts | 241° |
| 2026-04-25 00:52 | -16.22101 | -48.25325 | 23660 ft | 396 kts | 241° |
| 2026-04-25 00:52 | -16.23434 | -48.27862 | 24289 ft | 400 kts | 240° |
| 2026-04-25 00:53 | -16.24961 | -48.30291 | 24890 ft | 404 kts | 231° |
| 2026-04-25 00:53 | -16.26180 | -48.31763 | 25275 ft | 406 kts | 228° |
| 2026-04-25 00:53 | -16.28731 | -48.34651 | 26040 ft | 411 kts | 227° |
| 2026-04-25 00:53 | -16.30691 | -48.36835 | 26582 ft | 414 kts | 227° |
| 2026-04-25 00:54 | -16.32663 | -48.39042 | 27118 ft | 418 kts | 227° |
| 2026-04-25 00:54 | -16.34641 | -48.41276 | 27625 ft | 421 kts | 227° |
| 2026-04-25 00:54 | -16.35989 | -48.42807 | 27956 ft | 424 kts | 227° |
| 2026-04-25 00:54 | -16.37959 | -48.45055 | 28421 ft | 428 kts | 228° |
| 2026-04-25 00:55 | -16.39974 | -48.47361 | 28879 ft | 431 kts | 228° |
| 2026-04-25 00:55 | -16.42663 | -48.50443 | 29503 ft | 435 kts | 228° |
| 2026-04-25 00:55 | -16.44702 | -48.52781 | 29943 ft | 437 kts | 228° |
| 2026-04-25 00:55 | -16.46066 | -48.54346 | 30219 ft | 440 kts | 228° |
| 2026-04-25 00:56 | -16.48135 | -48.56719 | 30612 ft | 443 kts | 228° |
| 2026-04-25 00:56 | -16.50212 | -48.59102 | 30998 ft | 446 kts | 228° |
| 2026-04-25 00:56 | -16.52307 | -48.61506 | 31431 ft | 447 kts | 228° |
| 2026-04-25 00:56 | -16.54362 | -48.63932 | 31988 ft | 444 kts | 232° |
| 2026-04-25 00:57 | -16.56089 | -48.66583 | 32533 ft | 441 kts | 242° |
| 2026-04-25 00:57 | -16.57508 | -48.69410 | 33011 ft | 440 kts | 243° |
| 2026-04-25 00:57 | -16.58880 | -48.72264 | 33399 ft | 441 kts | 244° |
| 2026-04-25 00:57 | -16.60242 | -48.75128 | 33786 ft | 441 kts | 244° |
| 2026-04-25 00:58 | -16.61608 | -48.77991 | 34190 ft | 441 kts | 243° |
| 2026-04-25 00:58 | -16.62962 | -48.80810 | 34621 ft | 439 kts | 243° |
| 2026-04-25 00:58 | -16.64336 | -48.83647 | 35043 ft | 437 kts | 243° |
| 2026-04-25 00:58 | -16.65712 | -48.86477 | 35426 ft | 436 kts | 243° |
| 2026-04-25 00:59 | -16.67089 | -48.89299 | 35791 ft | 435 kts | 243° |
| 2026-04-25 00:59 | -16.68466 | -48.92120 | 36009 ft | 438 kts | 243° |
| 2026-04-25 00:59 | -16.69861 | -48.94975 | 35997 ft | 445 kts | 243° |
| 2026-04-25 01:00 | -16.72715 | -49.00822 | 36010 ft | 455 kts | 243° |
| 2026-04-25 01:00 | -16.75591 | -49.06721 | 36006 ft | 457 kts | 243° |
| 2026-04-25 01:01 | -16.78459 | -49.12608 | 36001 ft | 457 kts | 243° |
| 2026-04-25 01:01 | -16.81336 | -49.18522 | 36000 ft | 456 kts | 243° |
| 2026-04-25 01:02 | -16.84206 | -49.24426 | 35998 ft | 455 kts | 243° |
| 2026-04-25 01:02 | -16.87066 | -49.30313 | 36002 ft | 453 kts | 243° |
| 2026-04-25 01:03 | -16.89898 | -49.36150 | 36002 ft | 452 kts | 243° |
| 2026-04-25 01:03 | -16.92739 | -49.42010 | 36001 ft | 451 kts | 243° |
| 2026-04-25 01:04 | -16.95576 | -49.47866 | 36001 ft | 450 kts | 243° |
| 2026-04-25 01:04 | -16.98384 | -49.53668 | 36002 ft | 450 kts | 243° |
| 2026-04-25 01:05 | -17.01208 | -49.59508 | 36000 ft | 449 kts | 243° |
| 2026-04-25 01:05 | -17.04024 | -49.65336 | 36000 ft | 448 kts | 243° |
| 2026-04-25 01:06 | -17.06817 | -49.71124 | 36002 ft | 448 kts | 243° |
| 2026-04-25 01:06 | -17.09629 | -49.76954 | 36000 ft | 448 kts | 243° |
| 2026-04-25 01:07 | -17.12436 | -49.82780 | 36003 ft | 448 kts | 243° |
| 2026-04-25 01:07 | -17.15247 | -49.88622 | 35999 ft | 448 kts | 243° |
| 2026-04-25 01:08 | -17.18034 | -49.94417 | 36005 ft | 449 kts | 243° |
| 2026-04-25 01:08 | -17.20284 | -50.00484 | 36003 ft | 448 kts | 260° |
| 2026-04-25 01:09 | -17.20295 | -50.06962 | 36010 ft | 447 kts | 278° |
| 2026-04-25 01:09 | -17.19265 | -50.13353 | 36005 ft | 448 kts | 280° |
| 2026-04-25 01:10 | -17.18192 | -50.19784 | 35997 ft | 449 kts | 279° |
| 2026-04-25 01:10 | -17.17159 | -50.26218 | 36001 ft | 449 kts | 279° |
| 2026-04-25 01:11 | -17.16147 | -50.32670 | 36000 ft | 449 kts | 279° |
| 2026-04-25 01:11 | -17.15146 | -50.39090 | 36003 ft | 450 kts | 279° |
| 2026-04-25 01:12 | -17.14139 | -50.45539 | 36006 ft | 450 kts | 279° |
| 2026-04-25 01:12 | -17.13127 | -50.52000 | 35999 ft | 450 kts | 279° |
| 2026-04-25 01:13 | -17.12111 | -50.58465 | 36003 ft | 450 kts | 279° |
| 2026-04-25 01:13 | -17.11092 | -50.64938 | 36002 ft | 451 kts | 279° |
| 2026-04-25 01:14 | -17.10070 | -50.71411 | 36000 ft | 451 kts | 279° |
| 2026-04-25 01:14 | -17.09054 | -50.77835 | 35997 ft | 451 kts | 279° |
| 2026-04-25 01:15 | -17.08029 | -50.84307 | 36000 ft | 451 kts | 279° |
| 2026-04-25 01:15 | -17.07000 | -50.90784 | 36006 ft | 451 kts | 279° |
| 2026-04-25 01:16 | -17.05970 | -50.97259 | 36001 ft | 451 kts | 279° |
| 2026-04-25 01:16 | -17.04937 | -51.03737 | 36002 ft | 451 kts | 279° |
| 2026-04-25 01:17 | -17.03908 | -51.10174 | 35999 ft | 451 kts | 279° |
| 2026-04-25 01:17 | -17.02871 | -51.16652 | 36002 ft | 451 kts | 279° |
| 2026-04-25 01:18 | -17.01832 | -51.23124 | 36001 ft | 451 kts | 279° |
| 2026-04-25 01:18 | -17.00791 | -51.29597 | 36001 ft | 451 kts | 279° |
| 2026-04-25 01:19 | -16.99757 | -51.36018 | 36002 ft | 451 kts | 279° |
| 2026-04-25 01:19 | -16.98711 | -51.42492 | 36001 ft | 450 kts | 279° |
| 2026-04-25 01:20 | -16.97667 | -51.48947 | 36000 ft | 450 kts | 279° |
| 2026-04-25 01:20 | -16.96627 | -51.55358 | 35999 ft | 450 kts | 279° |
| 2026-04-25 01:21 | -16.95580 | -51.61806 | 36000 ft | 450 kts | 279° |
| 2026-04-25 01:21 | -16.94529 | -51.68261 | 36003 ft | 450 kts | 279° |
| 2026-04-25 01:22 | -16.93478 | -51.74705 | 36003 ft | 450 kts | 279° |
| 2026-04-25 01:22 | -16.92423 | -51.81159 | 36000 ft | 450 kts | 279° |
| 2026-04-25 01:23 | -16.91372 | -51.87572 | 36000 ft | 450 kts | 279° |
| 2026-04-25 01:23 | -16.90314 | -51.94020 | 36007 ft | 450 kts | 279° |
| 2026-04-25 01:24 | -16.89252 | -52.00480 | 35998 ft | 450 kts | 279° |
| 2026-04-25 01:24 | -16.88195 | -52.06891 | 36003 ft | 450 kts | 279° |
| 2026-04-25 01:25 | -16.87128 | -52.13352 | 36002 ft | 450 kts | 279° |
| 2026-04-25 01:25 | -16.86067 | -52.19766 | 36002 ft | 450 kts | 279° |
| 2026-04-25 01:26 | -16.84997 | -52.26223 | 36002 ft | 450 kts | 279° |
| 2026-04-25 01:26 | -16.83926 | -52.32669 | 35999 ft | 450 kts | 279° |
| 2026-04-25 01:27 | -16.82858 | -52.39085 | 36000 ft | 450 kts | 279° |
| 2026-04-25 01:27 | -16.81784 | -52.45528 | 35999 ft | 450 kts | 279° |
| 2026-04-25 01:28 | -16.80171 | -52.55173 | 36002 ft | 450 kts | 280° |
| 2026-04-25 01:28 | -16.79093 | -52.61609 | 36006 ft | 450 kts | 280° |
| 2026-04-25 01:29 | -16.78019 | -52.68004 | 35997 ft | 450 kts | 280° |
| 2026-04-25 01:29 | -16.76936 | -52.74441 | 36006 ft | 450 kts | 280° |
| 2026-04-25 01:30 | -16.75852 | -52.80870 | 36002 ft | 450 kts | 280° |
| 2026-04-25 01:30 | -16.74766 | -52.87304 | 35998 ft | 449 kts | 280° |
| 2026-04-25 01:31 | -16.73685 | -52.93690 | 36005 ft | 449 kts | 280° |
| 2026-04-25 01:31 | -16.72595 | -53.00122 | 35999 ft | 449 kts | 280° |
| 2026-04-25 01:32 | -16.71505 | -53.06539 | 36000 ft | 449 kts | 280° |
| 2026-04-25 01:32 | -16.70574 | -53.12985 | 36002 ft | 449 kts | 275° |
| 2026-04-25 01:33 | -16.70076 | -53.19453 | 36004 ft | 449 kts | 274° |
| 2026-04-25 01:33 | -16.69631 | -53.25951 | 36003 ft | 449 kts | 274° |
| 2026-04-25 01:34 | -16.69151 | -53.32465 | 36004 ft | 450 kts | 274° |
| 2026-04-25 01:34 | -16.68646 | -53.38945 | 36002 ft | 450 kts | 275° |
| 2026-04-25 01:35 | -16.68131 | -53.45450 | 36000 ft | 450 kts | 275° |
| 2026-04-25 01:35 | -16.67614 | -53.51951 | 36000 ft | 450 kts | 275° |
| 2026-04-25 01:36 | -16.67098 | -53.58422 | 35999 ft | 450 kts | 275° |
| 2026-04-25 01:36 | -16.66576 | -53.64941 | 36002 ft | 450 kts | 275° |
| 2026-04-25 01:37 | -16.66053 | -53.71457 | 36004 ft | 450 kts | 275° |
| 2026-04-25 01:37 | -16.65531 | -53.77927 | 36001 ft | 450 kts | 275° |
| 2026-04-25 01:38 | -16.65003 | -53.84456 | 36002 ft | 450 kts | 275° |
| 2026-04-25 01:38 | -16.64477 | -53.90925 | 36000 ft | 450 kts | 275° |
| 2026-04-25 01:39 | -16.63946 | -53.97435 | 35998 ft | 450 kts | 275° |
| 2026-04-25 01:39 | -16.63413 | -54.03949 | 36001 ft | 450 kts | 275° |
| 2026-04-25 01:40 | -16.62881 | -54.10419 | 35999 ft | 449 kts | 275° |
| 2026-04-25 01:40 | -16.62345 | -54.16917 | 36000 ft | 449 kts | 275° |
| 2026-04-25 01:41 | -16.61807 | -54.23417 | 36005 ft | 449 kts | 275° |
| 2026-04-25 01:41 | -16.61360 | -54.28796 | 35734 ft | 445 kts | 275° |
| 2026-04-25 01:42 | -16.61094 | -54.31988 | 35334 ft | 438 kts | 275° |
| 2026-04-25 01:42 | -16.60829 | -54.35155 | 34840 ft | 434 kts | 275° |
| 2026-04-25 01:42 | -16.60483 | -54.39293 | 34217 ft | 429 kts | 275° |
| 2026-04-25 01:42 | -16.60312 | -54.41340 | 33903 ft | 426 kts | 275° |
| 2026-04-25 01:43 | -16.60054 | -54.44413 | 33429 ft | 422 kts | 275° |
| 2026-04-25 01:43 | -16.59798 | -54.47451 | 32958 ft | 419 kts | 275° |
| 2026-04-25 01:43 | -16.59545 | -54.50465 | 32496 ft | 416 kts | 275° |
| 2026-04-25 01:43 | -16.59293 | -54.53455 | 32027 ft | 412 kts | 275° |
| 2026-04-25 01:44 | -16.59042 | -54.56421 | 31560 ft | 409 kts | 275° |
| 2026-04-25 01:44 | -16.58793 | -54.59367 | 31110 ft | 406 kts | 275° |
| 2026-04-25 01:44 | -16.58543 | -54.62287 | 30656 ft | 403 kts | 276° |
| 2026-04-25 01:44 | -16.57908 | -54.65109 | 30181 ft | 400 kts | 294° |
| 2026-04-25 01:45 | -16.56671 | -54.67644 | 29819 ft | 395 kts | 298° |
| 2026-04-25 01:45 | -16.55361 | -54.70156 | 29354 ft | 392 kts | 298° |
| 2026-04-25 01:45 | -16.54049 | -54.72643 | 28883 ft | 389 kts | 298° |
| 2026-04-25 01:45 | -16.52750 | -54.75113 | 28406 ft | 386 kts | 298° |
| 2026-04-25 01:46 | -16.51469 | -54.77570 | 27940 ft | 384 kts | 298° |
| 2026-04-25 01:46 | -16.50207 | -54.80007 | 27469 ft | 381 kts | 298° |
| 2026-04-25 01:46 | -16.48969 | -54.82408 | 27019 ft | 378 kts | 298° |
| 2026-04-25 01:46 | -16.47732 | -54.84814 | 26561 ft | 375 kts | 298° |
| 2026-04-25 01:47 | -16.46503 | -54.87207 | 26110 ft | 372 kts | 298° |
| 2026-04-25 01:47 | -16.45285 | -54.89580 | 25662 ft | 369 kts | 298° |
| 2026-04-25 01:47 | -16.44089 | -54.91909 | 25227 ft | 366 kts | 298° |
| 2026-04-25 01:47 | -16.42890 | -54.94245 | 24789 ft | 363 kts | 298° |
| 2026-04-25 01:48 | -16.41702 | -54.96556 | 24354 ft | 360 kts | 298° |
| 2026-04-25 01:48 | -16.40521 | -54.98854 | 23920 ft | 358 kts | 298° |
| 2026-04-25 01:48 | -16.39349 | -55.01134 | 23516 ft | 355 kts | 298° |
| 2026-04-25 01:48 | -16.38184 | -55.03399 | 23288 ft | 355 kts | 298° |
| 2026-04-25 01:49 | -16.36995 | -55.05711 | 23081 ft | 380 kts | 298° |
| 2026-04-25 01:49 | -16.35706 | -55.08216 | 22861 ft | 403 kts | 298° |
| 2026-04-25 01:49 | -16.34377 | -55.10798 | 22604 ft | 404 kts | 298° |
| 2026-04-25 01:49 | -16.33046 | -55.13382 | 22353 ft | 403 kts | 298° |
| 2026-04-25 01:50 | -16.31725 | -55.15946 | 21850 ft | 402 kts | 298° |
| 2026-04-25 01:50 | -16.30408 | -55.18501 | 21275 ft | 397 kts | 298° |
| 2026-04-25 01:50 | -16.29128 | -55.20985 | 20651 ft | 393 kts | 298° |
| 2026-04-25 01:50 | -16.27840 | -55.23482 | 20039 ft | 389 kts | 298° |
| 2026-04-25 01:51 | -16.26565 | -55.25953 | 19426 ft | 385 kts | 298° |
| 2026-04-25 01:51 | -16.25305 | -55.28393 | 18817 ft | 381 kts | 298° |
| 2026-04-25 01:51 | -16.24060 | -55.30804 | 18253 ft | 377 kts | 298° |
| 2026-04-25 01:51 | -16.22823 | -55.33199 | 17643 ft | 374 kts | 298° |
| 2026-04-25 01:52 | -16.21595 | -55.35575 | 17046 ft | 370 kts | 298° |
| 2026-04-25 01:52 | -16.20380 | -55.37926 | 16444 ft | 367 kts | 298° |
| 2026-04-25 01:52 | -16.19173 | -55.40262 | 15853 ft | 364 kts | 298° |
| 2026-04-25 01:52 | -16.17994 | -55.42543 | 15273 ft | 361 kts | 298° |
| 2026-04-25 01:53 | -16.16809 | -55.44835 | 14688 ft | 358 kts | 298° |
| 2026-04-25 01:53 | -16.15632 | -55.47110 | 14108 ft | 355 kts | 298° |
| 2026-04-25 01:53 | -16.14466 | -55.49364 | 13535 ft | 351 kts | 298° |
| 2026-04-25 01:53 | -16.13313 | -55.51592 | 12963 ft | 348 kts | 298° |
| 2026-04-25 01:54 | -16.12167 | -55.53805 | 12378 ft | 345 kts | 298° |
| 2026-04-25 01:54 | -16.11033 | -55.55996 | 11822 ft | 342 kts | 298° |
| 2026-04-25 01:54 | -16.09919 | -55.58146 | 11262 ft | 339 kts | 298° |
| 2026-04-25 01:54 | -16.08809 | -55.60287 | 10769 ft | 334 kts | 298° |
| 2026-04-25 01:55 | -16.07719 | -55.62387 | 10501 ft | 323 kts | 298° |
| 2026-04-25 01:55 | -16.06677 | -55.64394 | 10348 ft | 309 kts | 298° |
| 2026-04-25 01:55 | -16.05675 | -55.66326 | 10207 ft | 296 kts | 298° |
| 2026-04-25 01:55 | -16.04719 | -55.68168 | 10093 ft | 284 kts | 298° |
| 2026-04-25 01:56 | -16.03801 | -55.69937 | 9929 ft | 273 kts | 298° |
| 2026-04-25 01:56 | -16.02897 | -55.71677 | 9596 ft | 271 kts | 298° |
| 2026-04-25 01:56 | -16.02017 | -55.73374 | 9255 ft | 270 kts | 298° |
| 2026-04-25 01:56 | -16.01129 | -55.75084 | 8914 ft | 268 kts | 298° |
| 2026-04-25 01:57 | -15.99362 | -55.78486 | 8221 ft | 266 kts | 298° |
| 2026-04-25 01:57 | -15.98483 | -55.80176 | 7873 ft | 265 kts | 298° |
| 2026-04-25 01:57 | -15.97608 | -55.81860 | 7523 ft | 263 kts | 298° |
| 2026-04-25 01:58 | -15.96740 | -55.83530 | 7181 ft | 262 kts | 298° |
| 2026-04-25 01:58 | -15.95884 | -55.85175 | 6837 ft | 261 kts | 298° |
| 2026-04-25 01:58 | -15.95022 | -55.86832 | 6490 ft | 260 kts | 298° |
| 2026-04-25 01:58 | -15.94164 | -55.88483 | 6152 ft | 259 kts | 298° |
| 2026-04-25 01:59 | -15.93319 | -55.90106 | 6005 ft | 250 kts | 298° |
| 2026-04-25 01:59 | -15.92506 | -55.91668 | 5879 ft | 241 kts | 298° |
| 2026-04-25 01:59 | -15.91723 | -55.93174 | 5766 ft | 232 kts | 298° |
| 2026-04-25 01:59 | -15.90978 | -55.94604 | 5657 ft | 223 kts | 298° |
| 2026-04-25 02:00 | -15.90256 | -55.95991 | 5565 ft | 214 kts | 298° |
| 2026-04-25 02:00 | -15.89548 | -55.97348 | 5388 ft | 210 kts | 298° |
| 2026-04-25 02:00 | -15.88868 | -55.98649 | 5206 ft | 205 kts | 300° |
| 2026-04-25 02:00 | -15.87888 | -55.99665 | 4958 ft | 199 kts | 333° |
| 2026-04-25 02:01 | -15.86661 | -56.00281 | 4738 ft | 193 kts | 333° |
| 2026-04-25 02:01 | -15.85470 | -56.00894 | 4515 ft | 189 kts | 333° |
| 2026-04-25 02:01 | -15.84317 | -56.01501 | 4504 ft | 183 kts | 332° |
| 2026-04-25 02:01 | -15.83141 | -56.02127 | 4269 ft | 192 kts | 332° |
| 2026-04-25 02:02 | -15.81941 | -56.02768 | 4017 ft | 192 kts | 332° |
| 2026-04-25 02:02 | -15.80766 | -56.03396 | 3772 ft | 188 kts | 332° |
| 2026-04-25 02:02 | -15.79627 | -56.04006 | 3530 ft | 186 kts | 332° |
| 2026-04-25 02:02 | -15.78483 | -56.04617 | 3272 ft | 182 kts | 332° |
| 2026-04-25 02:03 | -15.77372 | -56.05212 | 3029 ft | 178 kts | 332° |
| 2026-04-25 02:03 | -15.76290 | -56.05791 | 2797 ft | 172 kts | 332° |
| 2026-04-25 02:03 | -15.75254 | -56.06344 | 2584 ft | 161 kts | 332° |
| 2026-04-25 02:03 | -15.74300 | -56.06855 | 2360 ft | 151 kts | 332° |
| 2026-04-25 02:04 | -15.73389 | -56.07341 | 2216 ft | 142 kts | 332° |
| 2026-04-25 02:04 | -15.72506 | -56.07815 | 1990 ft | 141 kts | 332° |
| 2026-04-25 02:04 | -15.71643 | -56.08276 | 1802 ft | 139 kts | 332° |
| 2026-04-25 02:04 | -15.70786 | -56.08734 | 1632 ft | 139 kts | 332° |
| 2026-04-25 02:05 | -15.69925 | -56.09195 | 1443 ft | 139 kts | 332° |
| 2026-04-25 02:05 | -15.69047 | -56.09657 | 1258 ft | 144 kts | 333° |
| 2026-04-25 02:05 | -15.68153 | -56.10122 | 1079 ft | 146 kts | 332° |
| 2026-04-25 02:05 | -15.67248 | -56.10623 | 852 ft | 144 kts | 331° |
| 2026-04-25 02:06 | -15.66355 | -56.11105 | 658 ft | 145 kts | 332° |
| 2026-04-25 02:06 | -15.65517 | -56.11552 | 597 ft | 116 kts | 333° |
| 2026-04-25 02:06 | -15.65087 | -56.11780 | 597 ft | 21 kts | 331° |
| 2026-04-25 02:06 | -15.65073 | -56.11849 | 596 ft | 9 kts | 245° |
| 2026-04-25 02:07 | -15.65083 | -56.11880 | 596 ft | 3 kts | 275° |
| 2026-04-25 02:07 | -15.65084 | -56.11905 | 596 ft | 4 kts | 293° |
| 2026-04-25 02:07 | -15.65064 | -56.11922 | 596 ft | 4 kts | 330° |
| 2026-04-25 02:07 | -15.65043 | -56.11933 | 596 ft | 0 kts | 334° |
| 2026-04-25 02:08 | -15.65042 | -56.11934 | 596 ft | 0 kts | 334° |
| 2026-04-25 02:08 | -15.65041 | -56.11934 | 596 ft | 1 kts | 334° |
| 2026-04-25 02:08 | -15.65025 | -56.11944 | 596 ft | 3 kts | 311° |
| 2026-04-25 02:08 | -15.65035 | -56.11967 | 596 ft | 4 kts | 240° |
| 2026-04-25 02:09 | -15.65044 | -56.11984 | 596 ft | 0 kts | 244° |